sensor_id;sensor_type;location;lat;lon;timestamp;P1;durP1;ratioP1;P2;durP2;ratioP2
62123;SDS011;48110;47.532;19.078;2023-11-21T20:14:19;27.33;;;17.30;;
62123;SDS011;48110;47.532;19.078;2023-11-21T20:17:23;28.73;;;17.67;;
62123;SDS011;48110;47.532;19.078;2023-11-21T20:20:26;28.00;;;17.77;;
62123;SDS011;48110;47.532;19.078;2023-11-21T20:23:29;25.08;;;17.73;;
62123;SDS011;48110;47.532;19.078;2023-11-21T20:26:34;28.05;;;18.40;;
62123;SDS011;48110;47.532;19.078;2023-11-21T20:29:37;29.00;;;18.40;;
62123;SDS011;48110;47.532;19.078;2023-11-21T20:32:42;27.80;;;18.17;;
62123;SDS011;48110;47.532;19.078;2023-11-21T20:35:45;28.73;;;18.77;;
62123;SDS011;48110;47.532;19.078;2023-11-21T20:38:50;27.95;;;18.75;;
62123;SDS011;48110;47.532;19.078;2023-11-21T20:41:54;29.83;;;18.25;;
62123;SDS011;48110;47.532;19.078;2023-11-21T20:44:56;27.13;;;18.00;;
62123;SDS011;48110;47.532;19.078;2023-11-21T20:47:59;31.15;;;17.62;;
62123;SDS011;48110;47.532;19.078;2023-11-21T20:51:01;26.20;;;18.30;;
62123;SDS011;48110;47.532;19.078;2023-11-21T20:54:05;32.95;;;19.00;;
62123;SDS011;48110;47.532;19.078;2023-11-21T20:57:07;30.80;;;19.77;;
62123;SDS011;48110;47.532;19.078;2023-11-21T21:00:12;28.02;;;19.37;;
62123;SDS011;48110;47.532;19.078;2023-11-21T21:03:17;31.23;;;20.20;;
62123;SDS011;48110;47.532;19.078;2023-11-21T21:06:20;26.83;;;19.27;;
62123;SDS011;48110;47.532;19.078;2023-11-21T21:09:23;32.40;;;19.80;;
62123;SDS011;48110;47.532;19.078;2023-11-21T21:12:26;30.15;;;19.65;;
62123;SDS011;48110;47.532;19.078;2023-11-21T21:15:28;32.13;;;20.23;;
62123;SDS011;48110;47.532;19.078;2023-11-21T21:18:31;32.53;;;20.55;;
62123;SDS011;48110;47.532;19.078;2023-11-21T21:21:33;34.72;;;21.67;;
62123;SDS011;48110;47.532;19.078;2023-11-21T21:24:36;33.35;;;21.73;;
62123;SDS011;48110;47.532;19.078;2023-11-21T21:27:39;33.95;;;21.60;;
62123;SDS011;48110;47.532;19.078;2023-11-21T21:30:41;36.60;;;22.48;;
62123;SDS011;48110;47.532;19.078;2023-11-21T21:33:45;32.78;;;22.67;;
62123;SDS011;48110;47.532;19.078;2023-11-21T21:36:48;32.83;;;23.23;;
62123;SDS011;48110;47.532;19.078;2023-11-21T21:39:51;35.65;;;22.98;;
62123;SDS011;48110;47.532;19.078;2023-11-21T21:42:56;32.67;;;23.27;;
62123;SDS011;48110;47.532;19.078;2023-11-21T21:46:00;34.85;;;23.62;;
62123;SDS011;48110;47.532;19.078;2023-11-21T21:49:03;35.85;;;24.20;;
62123;SDS011;48110;47.532;19.078;2023-11-21T21:52:05;38.67;;;24.00;;
62123;SDS011;48110;47.532;19.078;2023-11-21T21:55:08;42.33;;;29.42;;
62123;SDS011;48110;47.532;19.078;2023-11-21T21:58:18;41.70;;;29.00;;
62123;SDS011;48110;47.532;19.078;2023-11-21T22:01:21;40.33;;;28.17;;
62123;SDS011;48110;47.532;19.078;2023-11-21T22:04:26;39.17;;;28.85;;
62123;SDS011;48110;47.532;19.078;2023-11-21T22:07:29;39.90;;;27.48;;
62123;SDS011;48110;47.532;19.078;2023-11-21T22:10:32;38.70;;;27.17;;
62123;SDS011;48110;47.532;19.078;2023-11-21T22:13:34;43.80;;;29.00;;
62123;SDS011;48110;47.532;19.078;2023-11-21T22:16:37;41.00;;;29.55;;
62123;SDS011;48110;47.532;19.078;2023-11-21T22:19:39;37.75;;;27.00;;
62123;SDS011;48110;47.532;19.078;2023-11-21T22:22:44;38.47;;;27.45;;
62123;SDS011;48110;47.532;19.078;2023-11-21T22:25:47;37.63;;;27.27;;
62123;SDS011;48110;47.532;19.078;2023-11-21T22:28:50;40.40;;;26.83;;
62123;SDS011;48110;47.532;19.078;2023-11-21T22:31:53;38.92;;;26.90;;
62123;SDS011;48110;47.532;19.078;2023-11-21T22:34:55;35.03;;;24.80;;
62123;SDS011;48110;47.532;19.078;2023-11-21T22:37:58;34.67;;;24.73;;
62123;SDS011;48110;47.532;19.078;2023-11-21T22:41:01;35.65;;;23.85;;
62123;SDS011;48110;47.532;19.078;2023-11-21T22:44:05;34.67;;;23.20;;
62123;SDS011;48110;47.532;19.078;2023-11-21T22:47:07;32.15;;;24.25;;
62123;SDS011;48110;47.532;19.078;2023-11-21T22:50:10;33.50;;;24.67;;
62123;SDS011;48110;47.532;19.078;2023-11-21T22:53:13;33.65;;;23.70;;
62123;SDS011;48110;47.532;19.078;2023-11-21T22:56:15;40.30;;;24.55;;
62123;SDS011;48110;47.532;19.078;2023-11-21T22:59:20;32.92;;;22.98;;
62123;SDS011;48110;47.532;19.078;2023-11-21T23:02:22;30.52;;;24.02;;
62123;SDS011;48110;47.532;19.078;2023-11-21T23:05:25;34.08;;;23.55;;
62123;SDS011;48110;47.532;19.078;2023-11-21T23:08:28;31.67;;;23.30;;
62123;SDS011;48110;47.532;19.078;2023-11-21T23:11:32;31.95;;;23.42;;
62123;SDS011;48110;47.532;19.078;2023-11-21T23:14:34;31.95;;;23.83;;
62123;SDS011;48110;47.532;19.078;2023-11-21T23:17:37;30.42;;;22.75;;
62123;SDS011;48110;47.532;19.078;2023-11-21T23:20:42;36.10;;;24.73;;
62123;SDS011;48110;47.532;19.078;2023-11-21T23:23:45;33.70;;;24.60;;
62123;SDS011;48110;47.532;19.078;2023-11-21T23:26:47;39.38;;;25.92;;
62123;SDS011;48110;47.532;19.078;2023-11-21T23:29:50;37.08;;;24.83;;
62123;SDS011;48110;47.532;19.078;2023-11-21T23:32:56;32.10;;;23.58;;
62123;SDS011;48110;47.532;19.078;2023-11-21T23:35:58;34.22;;;25.17;;
62123;SDS011;48110;47.532;19.078;2023-11-21T23:39:01;33.47;;;25.23;;
62123;SDS011;48110;47.532;19.078;2023-11-21T23:42:06;37.03;;;26.12;;
62123;SDS011;48110;47.532;19.078;2023-11-21T23:45:08;35.85;;;26.58;;
62123;SDS011;48110;47.532;19.078;2023-11-21T23:48:11;37.30;;;26.05;;
62123;SDS011;48110;47.532;19.078;2023-11-21T23:51:14;41.90;;;26.40;;
62123;SDS011;48110;47.532;19.078;2023-11-21T23:54:16;34.20;;;25.12;;
62123;SDS011;48110;47.532;19.078;2023-11-21T23:57:19;34.42;;;25.70;;
